sensor_id;sensor_type;location;lat;lon;timestamp;pressure;altitude;pressure_sealevel;temperature;humidity
29359;BME280;16347;53.232;6.556;2023-08-06T00:01:05;100638.44;;;19.09;64.78
29359;BME280;16347;53.232;6.556;2023-08-06T00:03:33;100636.28;;;19.11;65.35
29359;BME280;16347;53.232;6.556;2023-08-06T00:06:01;100637.13;;;19.11;65.40
29359;BME280;16347;53.232;6.556;2023-08-06T00:08:30;100622.34;;;19.06;65.12
29359;BME280;16347;53.232;6.556;2023-08-06T00:10:58;100624.69;;;19.02;65.28
29359;BME280;16347;53.232;6.556;2023-08-06T00:13:26;100621.72;;;19.04;64.73
29359;BME280;16347;53.232;6.556;2023-08-06T00:15:55;100616.22;;;19.04;64.86
29359;BME280;16347;53.232;6.556;2023-08-06T00:18:23;100616.22;;;19.04;64.99
29359;BME280;16347;53.232;6.556;2023-08-06T00:20:52;100611.31;;;19.06;65.04
29359;BME280;16347;53.232;6.556;2023-08-06T00:23:20;100610.25;;;19.07;65.28
29359;BME280;16347;53.232;6.556;2023-08-06T00:25:48;100612.16;;;19.06;65.22
29359;BME280;16347;53.232;6.556;2023-08-06T00:28:16;100611.06;;;19.07;64.74
29359;BME280;16347;53.232;6.556;2023-08-06T00:30:44;100610.25;;;19.07;64.79
29359;BME280;16347;53.232;6.556;2023-08-06T00:33:13;100605.19;;;19.04;64.76
29359;BME280;16347;53.232;6.556;2023-08-06T00:35:41;100605.38;;;19.02;65.28
29359;BME280;16347;53.232;6.556;2023-08-06T00:38:09;100607.31;;;19.02;65.34
29359;BME280;16347;53.232;6.556;2023-08-06T00:40:37;100612.59;;;19.03;64.69
29359;BME280;16347;53.232;6.556;2023-08-06T00:43:05;100604.53;;;19.02;65.06
29359;BME280;16347;53.232;6.556;2023-08-06T00:45:35;100606.25;;;19.03;65.04
29359;BME280;16347;53.232;6.556;2023-08-06T00:48:04;100606.44;;;19.01;64.61
29359;BME280;16347;53.232;6.556;2023-08-06T00:50:34;100604.78;;;19.00;64.97
29359;BME280;16347;53.232;6.556;2023-08-06T00:53:02;100609.66;;;18.98;65.13
29359;BME280;16347;53.232;6.556;2023-08-06T00:55:30;100610.91;;;19.02;65.19
29359;BME280;16347;53.232;6.556;2023-08-06T00:57:58;100605.59;;;19.01;65.28
29359;BME280;16347;53.232;6.556;2023-08-06T01:00:28;100608.78;;;18.98;65.11
29359;BME280;16347;53.232;6.556;2023-08-06T01:02:57;100607.75;;;18.99;64.81
29359;BME280;16347;53.232;6.556;2023-08-06T01:05:26;100606.69;;;19.00;64.96
29359;BME280;16347;53.232;6.556;2023-08-06T01:08:12;100612.59;;;19.03;65.16
29359;BME280;16347;53.232;6.556;2023-08-06T01:10:52;100605.59;;;19.01;65.14
29359;BME280;16347;53.232;6.556;2023-08-06T01:13:27;100601.38;;;18.98;65.23
29359;BME280;16347;53.232;6.556;2023-08-06T01:15:59;100607.94;;;18.97;65.30
29359;BME280;16347;53.232;6.556;2023-08-06T01:18:27;100606.88;;;18.98;65.59
29359;BME280;16347;53.232;6.556;2023-08-06T01:21:01;100602.03;;;19.00;65.53
29359;BME280;16347;53.232;6.556;2023-08-06T01:23:29;100605.84;;;18.99;65.16
29359;BME280;16347;53.232;6.556;2023-08-06T01:26:05;100604.78;;;19.00;64.82
29359;BME280;16347;53.232;6.556;2023-08-06T01:28:40;100602.63;;;19.02;65.40
29359;BME280;16347;53.232;6.556;2023-08-06T01:31:21;100600.31;;;18.99;64.92
29359;BME280;16347;53.232;6.556;2023-08-06T01:33:50;100601.19;;;19.00;65.23
29359;BME280;16347;53.232;6.556;2023-08-06T01:36:20;100600.31;;;18.99;64.84
29359;BME280;16347;53.232;6.556;2023-08-06T01:38:50;100600.13;;;18.94;65.23
29359;BME280;16347;53.232;6.556;2023-08-06T01:41:18;100598.22;;;18.94;64.83
29359;BME280;16347;53.232;6.556;2023-08-06T01:43:46;100594.59;;;18.94;64.99
29359;BME280;16347;53.232;6.556;2023-08-06T01:46:14;100589.94;;;18.94;65.26
29359;BME280;16347;53.232;6.556;2023-08-06T01:48:44;100587.00;;;18.96;65.34
29359;BME280;16347;53.232;6.556;2023-08-06T01:51:12;100584.69;;;18.93;65.43
29359;BME280;16347;53.232;6.556;2023-08-06T01:53:41;100588.28;;;18.93;65.07
29359;BME280;16347;53.232;6.556;2023-08-06T01:56:09;100591.84;;;18.94;65.23
29359;BME280;16347;53.232;6.556;2023-08-06T01:58:37;100584.44;;;18.94;65.30
29359;BME280;16347;53.232;6.556;2023-08-06T02:01:05;100585.28;;;18.95;65.50
29359;BME280;16347;53.232;6.556;2023-08-06T02:03:36;100580.38;;;18.97;65.62
29359;BME280;16347;53.232;6.556;2023-08-06T02:06:04;100583.38;;;18.95;65.32
29359;BME280;16347;53.232;6.556;2023-08-06T02:08:32;100577.63;;;18.97;65.39
29359;BME280;16347;53.232;6.556;2023-08-06T02:11:02;100577.63;;;18.97;65.17
29359;BME280;16347;53.232;6.556;2023-08-06T02:13:30;100578.06;;;18.94;65.96
29359;BME280;16347;53.232;6.556;2023-08-06T02:15:58;100580.63;;;18.95;65.34
29359;BME280;16347;53.232;6.556;2023-08-06T02:18:27;100572.38;;;18.95;65.85
29359;BME280;16347;53.232;6.556;2023-08-06T02:20:56;100580.84;;;18.94;65.21
29359;BME280;16347;53.232;6.556;2023-08-06T02:23:25;100573.66;;;18.93;65.29
29359;BME280;16347;53.232;6.556;2023-08-06T02:25:59;100573.84;;;18.91;65.81
29359;BME280;16347;53.232;6.556;2023-08-06T02:28:29;100577.66;;;18.90;65.66
29359;BME280;16347;53.232;6.556;2023-08-06T02:30:57;100575.59;;;18.86;65.64
29359;BME280;16347;53.232;6.556;2023-08-06T02:33:26;100569.22;;;18.85;66.31
29359;BME280;16347;53.232;6.556;2023-08-06T02:36:01;100558.81;;;18.87;66.29
29359;BME280;16347;53.232;6.556;2023-08-06T02:38:30;100555.06;;;18.82;66.17
29359;BME280;16347;53.232;6.556;2023-08-06T02:40:58;100551.69;;;18.80;66.34
29359;BME280;16347;53.232;6.556;2023-08-06T02:43:28;100552.50;;;18.80;66.45
29359;BME280;16347;53.232;6.556;2023-08-06T02:45:57;100547.84;;;18.81;66.19
29359;BME280;16347;53.232;6.556;2023-08-06T02:48:26;100543.63;;;18.78;66.22
29359;BME280;16347;53.232;6.556;2023-08-06T02:50:57;100533.66;;;18.77;66.38
29359;BME280;16347;53.232;6.556;2023-08-06T02:53:27;100538.84;;;18.99;66.17
29359;BME280;16347;53.232;6.556;2023-08-06T02:55:58;100542.75;;;18.84;66.06
29359;BME280;16347;53.232;6.556;2023-08-06T02:58:36;100540.22;;;18.83;66.24
29359;BME280;16347;53.232;6.556;2023-08-06T03:01:15;100543.81;;;18.83;66.21
29359;BME280;16347;53.232;6.556;2023-08-06T03:03:50;100534.47;;;18.84;66.06
29359;BME280;16347;53.232;6.556;2023-08-06T03:06:24;100532.16;;;18.81;66.29
29359;BME280;16347;53.232;6.556;2023-08-06T03:08:55;100534.28;;;18.86;66.56
29359;BME280;16347;53.232;6.556;2023-08-06T03:11:23;100533.63;;;18.84;66.42
29359;BME280;16347;53.232;6.556;2023-08-06T03:13:57;100530.06;;;18.83;65.96
29359;BME280;16347;53.232;6.556;2023-08-06T03:16:26;100524.53;;;18.83;66.41
29359;BME280;16347;53.232;6.556;2023-08-06T03:18:53;100526.22;;;18.84;66.67
29359;BME280;16347;53.232;6.556;2023-08-06T03:21:21;100519.66;;;18.85;66.44
29359;BME280;16347;53.232;6.556;2023-08-06T03:23:50;100517.75;;;18.86;66.46
29359;BME280;16347;53.232;6.556;2023-08-06T03:26:21;100510.53;;;18.85;66.34
29359;BME280;16347;53.232;6.556;2023-08-06T03:28:49;100514.75;;;18.87;66.01
29359;BME280;16347;53.232;6.556;2023-08-06T03:31:19;100504.56;;;18.88;66.29
29359;BME280;16347;53.232;6.556;2023-08-06T03:33:47;100510.72;;;18.90;66.30
29359;BME280;16347;53.232;6.556;2023-08-06T03:36:21;100514.31;;;18.90;66.33
29359;BME280;16347;53.232;6.556;2023-08-06T03:38:50;100525.97;;;18.92;65.86
29359;BME280;16347;53.232;6.556;2023-08-06T03:41:19;100511.78;;;18.89;66.16
29359;BME280;16347;53.232;6.556;2023-08-06T03:43:47;100510.94;;;18.88;65.77
29359;BME280;16347;53.232;6.556;2023-08-06T03:46:22;100510.09;;;18.88;65.45
29359;BME280;16347;53.232;6.556;2023-08-06T03:48:50;100509.69;;;18.84;65.98
29359;BME280;16347;53.232;6.556;2023-08-06T03:51:20;100513.72;;;18.82;66.08
29359;BME280;16347;53.232;6.556;2023-08-06T03:53:49;100515.63;;;18.81;65.98
29359;BME280;16347;53.232;6.556;2023-08-06T03:56:17;100517.75;;;18.86;65.90
29359;BME280;16347;53.232;6.556;2023-08-06T03:58:45;100503.97;;;18.86;66.07
29359;BME280;16347;53.232;6.556;2023-08-06T04:01:12;100515.84;;;18.86;66.47
29359;BME280;16347;53.232;6.556;2023-08-06T04:03:44;100503.31;;;18.84;66.49
29359;BME280;16347;53.232;6.556;2023-08-06T04:06:12;100515.59;;;18.88;66.21
29359;BME280;16347;53.232;6.556;2023-08-06T04:08:40;100516.66;;;18.87;65.96
29359;BME280;16347;53.232;6.556;2023-08-06T04:11:08;100510.09;;;18.88;66.76
29359;BME280;16347;53.232;6.556;2023-08-06T04:13:36;100510.09;;;18.88;66.52
29359;BME280;16347;53.232;6.556;2023-08-06T04:16:04;100508.19;;;18.88;66.27
29359;BME280;16347;53.232;6.556;2023-08-06T04:18:32;100509.03;;;18.89;66.77
29359;BME280;16347;53.232;6.556;2023-08-06T04:21:03;100512.63;;;18.89;66.38
29359;BME280;16347;53.232;6.556;2023-08-06T04:23:30;100509.03;;;18.89;66.50
29359;BME280;16347;53.232;6.556;2023-08-06T04:26:02;100515.16;;;18.91;66.06
29359;BME280;16347;53.232;6.556;2023-08-06T04:28:33;100515.78;;;18.93;66.07
29359;BME280;16347;53.232;6.556;2023-08-06T04:31:01;100518.56;;;18.93;66.45
29359;BME280;16347;53.232;6.556;2023-08-06T04:33:32;100525.97;;;18.92;65.86
29359;BME280;16347;53.232;6.556;2023-08-06T04:36:07;100528.06;;;18.90;65.96
29359;BME280;16347;53.232;6.556;2023-08-06T04:38:36;100528.31;;;18.89;66.51
29359;BME280;16347;53.232;6.556;2023-08-06T04:41:05;100527.25;;;18.90;66.05
29359;BME280;16347;53.232;6.556;2023-08-06T04:43:34;100523.66;;;18.89;65.97
29359;BME280;16347;53.232;6.556;2023-08-06T04:46:02;100526.63;;;18.88;66.30
29359;BME280;16347;53.232;6.556;2023-08-06T04:48:30;100526.41;;;18.89;66.18
29359;BME280;16347;53.232;6.556;2023-08-06T04:50:58;100526.41;;;18.89;66.29
29359;BME280;16347;53.232;6.556;2023-08-06T04:53:27;100524.50;;;18.90;65.92
29359;BME280;16347;53.232;6.556;2023-08-06T04:55:56;100519.81;;;18.90;66.18
29359;BME280;16347;53.232;6.556;2023-08-06T04:58:23;100521.09;;;18.88;66.22
29359;BME280;16347;53.232;6.556;2023-08-06T05:00:52;100521.34;;;18.86;66.44
29359;BME280;16347;53.232;6.556;2023-08-06T05:03:20;100530.66;;;18.85;66.10
29359;BME280;16347;53.232;6.556;2023-08-06T05:05:48;100519.25;;;18.82;66.42
29359;BME280;16347;53.232;6.556;2023-08-06T05:08:16;100521.19;;;18.75;66.19
29359;BME280;16347;53.232;6.556;2023-08-06T05:10:46;100520.13;;;18.76;66.73
29359;BME280;16347;53.232;6.556;2023-08-06T05:13:14;100517.56;;;18.74;66.65
29359;BME280;16347;53.232;6.556;2023-08-06T05:15:42;100519.03;;;18.77;66.15
29359;BME280;16347;53.232;6.556;2023-08-06T05:18:12;100517.13;;;18.77;66.35
29359;BME280;16347;53.232;6.556;2023-08-06T05:20:40;100516.28;;;18.77;66.26
29359;BME280;16347;53.232;6.556;2023-08-06T05:23:09;100516.94;;;18.79;66.48
29359;BME280;16347;53.232;6.556;2023-08-06T05:25:37;100522.00;;;18.82;66.49
29359;BME280;16347;53.232;6.556;2023-08-06T05:28:07;100526.88;;;18.80;66.31
29359;BME280;16347;53.232;6.556;2023-08-06T05:30:39;100531.56;;;18.79;66.71
29359;BME280;16347;53.232;6.556;2023-08-06T05:33:07;100531.75;;;18.78;66.37
29359;BME280;16347;53.232;6.556;2023-08-06T05:35:35;100534.75;;;18.76;66.31
29359;BME280;16347;53.232;6.556;2023-08-06T05:38:02;100532.38;;;18.86;67.21
29359;BME280;16347;53.232;6.556;2023-08-06T05:40:33;100535.88;;;19.00;67.90
29359;BME280;16347;53.232;6.556;2023-08-06T05:43:01;100542.59;;;19.11;67.40
29359;BME280;16347;53.232;6.556;2023-08-06T05:45:30;100544.25;;;19.18;67.30
29359;BME280;16347;53.232;6.556;2023-08-06T05:47:58;100540.59;;;19.24;67.80
29359;BME280;16347;53.232;6.556;2023-08-06T05:50:27;100540.94;;;19.34;68.09
29359;BME280;16347;53.232;6.556;2023-08-06T05:52:56;100547.28;;;19.41;67.25
29359;BME280;16347;53.232;6.556;2023-08-06T05:55:27;100550.22;;;19.47;67.08
29359;BME280;16347;53.232;6.556;2023-08-06T05:57:56;100554.44;;;19.49;66.68
29359;BME280;16347;53.232;6.556;2023-08-06T06:00:25;100563.97;;;19.53;67.31
29359;BME280;16347;53.232;6.556;2023-08-06T06:02:54;100554.00;;;19.52;66.48
29359;BME280;16347;53.232;6.556;2023-08-06T06:05:22;100559.31;;;19.54;66.39
29359;BME280;16347;53.232;6.556;2023-08-06T06:07:50;100551.63;;;19.56;66.15
29359;BME280;16347;53.232;6.556;2023-08-06T06:10:18;100547.56;;;19.58;66.70
29359;BME280;16347;53.232;6.556;2023-08-06T06:12:46;100550.97;;;19.60;66.41
29359;BME280;16347;53.232;6.556;2023-08-06T06:15:14;100561.38;;;19.58;66.05
29359;BME280;16347;53.232;6.556;2023-08-06T06:17:42;100558.22;;;19.55;65.68
29359;BME280;16347;53.232;6.556;2023-08-06T06:20:11;100562.66;;;19.56;66.17
29359;BME280;16347;53.232;6.556;2023-08-06T06:22:39;100563.50;;;19.56;66.25
29359;BME280;16347;53.232;6.556;2023-08-06T06:25:07;100558.78;;;19.63;66.44
29359;BME280;16347;53.232;6.556;2023-08-06T06:27:36;100563.47;;;19.63;65.68
29359;BME280;16347;53.232;6.556;2023-08-06T06:30:05;100567.22;;;19.68;66.08
29359;BME280;16347;53.232;6.556;2023-08-06T06:32:33;100562.75;;;19.74;65.85
29359;BME280;16347;53.232;6.556;2023-08-06T06:35:01;100563.81;;;19.73;65.54
29359;BME280;16347;53.232;6.556;2023-08-06T06:37:32;100562.75;;;19.74;65.88
29359;BME280;16347;53.232;6.556;2023-08-06T06:40:00;100564.66;;;19.73;65.30
29359;BME280;16347;53.232;6.556;2023-08-06T06:42:28;100570.16;;;19.73;65.38
29359;BME280;16347;53.232;6.556;2023-08-06T06:44:59;100573.78;;;19.74;65.29
29359;BME280;16347;53.232;6.556;2023-08-06T06:47:27;100572.28;;;19.71;65.08
29359;BME280;16347;53.232;6.556;2023-08-06T06:49:56;100575.94;;;19.65;65.08
29359;BME280;16347;53.232;6.556;2023-08-06T06:52:24;100571.75;;;19.63;65.25
29359;BME280;16347;53.232;6.556;2023-08-06T06:54:53;100569.19;;;19.61;65.07
29359;BME280;16347;53.232;6.556;2023-08-06T06:57:21;100581.72;;;19.64;65.49
29359;BME280;16347;53.232;6.556;2023-08-06T06:59:49;100577.41;;;19.68;65.90
29359;BME280;16347;53.232;6.556;2023-08-06T07:02:17;100571.84;;;19.74;65.99
29359;BME280;16347;53.232;6.556;2023-08-06T07:04:45;100571.22;;;19.72;66.17
29359;BME280;16347;53.232;6.556;2023-08-06T07:07:13;100578.59;;;19.78;65.86
29359;BME280;16347;53.232;6.556;2023-08-06T07:09:41;100577.34;;;19.81;66.25
29359;BME280;16347;53.232;6.556;2023-08-06T07:12:10;100575.56;;;19.86;66.58
29359;BME280;16347;53.232;6.556;2023-08-06T07:14:38;100581.94;;;19.87;65.54
29359;BME280;16347;53.232;6.556;2023-08-06T07:17:06;100578.72;;;19.90;65.76
29359;BME280;16347;53.232;6.556;2023-08-06T07:19:34;100578.88;;;19.95;65.56
29359;BME280;16347;53.232;6.556;2023-08-06T07:22:02;100584.78;;;19.98;65.55
29359;BME280;16347;53.232;6.556;2023-08-06T07:24:30;100579.06;;;20.00;65.22
29359;BME280;16347;53.232;6.556;2023-08-06T07:26:59;100581.97;;;20.05;65.69
29359;BME280;16347;53.232;6.556;2023-08-06T07:29:29;100575.59;;;20.05;65.62
29359;BME280;16347;53.232;6.556;2023-08-06T07:31:57;100579.00;;;20.07;65.28
29359;BME280;16347;53.232;6.556;2023-08-06T07:34:25;100578.34;;;20.05;65.07
29359;BME280;16347;53.232;6.556;2023-08-06T07:36:53;100579.22;;;20.05;64.48
29359;BME280;16347;53.232;6.556;2023-08-06T07:39:20;100572.69;;;20.00;64.59
29359;BME280;16347;53.232;6.556;2023-08-06T07:41:49;100578.03;;;19.94;64.58
29359;BME280;16347;53.232;6.556;2023-08-06T07:44:17;100582.47;;;19.95;64.98
29359;BME280;16347;53.232;6.556;2023-08-06T07:46:47;100577.81;;;19.96;65.16
29359;BME280;16347;53.232;6.556;2023-08-06T07:49:15;100583.94;;;19.98;65.50
29359;BME280;16347;53.232;6.556;2023-08-06T07:51:43;100579.50;;;19.97;64.78
29359;BME280;16347;53.232;6.556;2023-08-06T07:54:11;100582.47;;;19.95;65.14
29359;BME280;16347;53.232;6.556;2023-08-06T07:56:39;100575.44;;;20.00;64.96
29359;BME280;16347;53.232;6.556;2023-08-06T07:59:07;100569.94;;;20.00;65.06
29359;BME280;16347;53.232;6.556;2023-08-06T08:01:37;100577.66;;;19.91;64.94
29359;BME280;16347;53.232;6.556;2023-08-06T08:04:06;100567.22;;;19.93;65.74
29359;BME280;16347;53.232;6.556;2023-08-06T08:06:34;100568.69;;;19.95;65.65
29359;BME280;16347;53.232;6.556;2023-08-06T08:09:02;100569.31;;;19.98;65.20
29359;BME280;16347;53.232;6.556;2023-08-06T08:11:30;100564.63;;;19.98;65.38
29359;BME280;16347;53.232;6.556;2023-08-06T08:13:58;100567.78;;;20.02;64.94
29359;BME280;16347;53.232;6.556;2023-08-06T08:16:26;100569.00;;;20.06;65.26
29359;BME280;16347;53.232;6.556;2023-08-06T08:18:54;100568.56;;;20.09;64.83
29359;BME280;16347;53.232;6.556;2023-08-06T08:21:23;100564.50;;;20.11;64.51
29359;BME280;16347;53.232;6.556;2023-08-06T08:23:51;100568.34;;;20.10;64.65
29359;BME280;16347;53.232;6.556;2023-08-06T08:26:19;100563.81;;;20.16;64.31
29359;BME280;16347;53.232;6.556;2023-08-06T08:28:47;100562.75;;;20.17;65.07
29359;BME280;16347;53.232;6.556;2023-08-06T08:31:16;100568.50;;;20.15;64.41
29359;BME280;16347;53.232;6.556;2023-08-06T08:33:44;100564.81;;;20.21;65.25
29359;BME280;16347;53.232;6.556;2023-08-06T08:36:12;100568.38;;;20.28;64.73
29359;BME280;16347;53.232;6.556;2023-08-06T08:38:41;100562.22;;;20.26;63.91
29359;BME280;16347;53.232;6.556;2023-08-06T08:41:10;100569.63;;;20.32;64.47
29359;BME280;16347;53.232;6.556;2023-08-06T08:43:39;100562.34;;;20.38;64.32
29359;BME280;16347;53.232;6.556;2023-08-06T08:46:09;100557.81;;;20.43;63.97
29359;BME280;16347;53.232;6.556;2023-08-06T08:48:39;100558.59;;;20.51;64.16
29359;BME280;16347;53.232;6.556;2023-08-06T08:51:07;100558.81;;;20.49;63.98
29359;BME280;16347;53.232;6.556;2023-08-06T08:53:36;100563.25;;;20.50;63.56
29359;BME280;16347;53.232;6.556;2023-08-06T08:56:07;100554.50;;;20.53;62.45
29359;BME280;16347;53.232;6.556;2023-08-06T08:58:39;100555.03;;;20.62;61.89
29359;BME280;16347;53.232;6.556;2023-08-06T09:01:07;100556.34;;;20.59;62.08
29359;BME280;16347;53.232;6.556;2023-08-06T09:03:36;100552.28;;;20.62;61.60
29359;BME280;16347;53.232;6.556;2023-08-06T09:06:04;100556.25;;;20.66;61.22
29359;BME280;16347;53.232;6.556;2023-08-06T09:08:36;100560.03;;;20.71;61.50
29359;BME280;16347;53.232;6.556;2023-08-06T09:11:06;100558.94;;;20.72;60.32
29359;BME280;16347;53.232;6.556;2023-08-06T09:13:37;100566.75;;;20.75;59.37
29359;BME280;16347;53.232;6.556;2023-08-06T09:16:05;100566.38;;;20.72;58.90
29359;BME280;16347;53.232;6.556;2023-08-06T09:18:33;100573.00;;;20.71;58.91
29359;BME280;16347;53.232;6.556;2023-08-06T09:21:01;100572.53;;;20.74;58.36
29359;BME280;16347;53.232;6.556;2023-08-06T09:23:31;100569.06;;;20.78;59.35
29359;BME280;16347;53.232;6.556;2023-08-06T09:26:00;100575.13;;;20.87;58.69
29359;BME280;16347;53.232;6.556;2023-08-06T09:28:38;100573.34;;;20.92;58.44
29359;BME280;16347;53.232;6.556;2023-08-06T09:31:10;100576.59;;;20.89;56.53
29359;BME280;16347;53.232;6.556;2023-08-06T09:33:38;100579.13;;;20.91;56.10
29359;BME280;16347;53.232;6.556;2023-08-06T09:36:10;100578.03;;;20.92;56.68
29359;BME280;16347;53.232;6.556;2023-08-06T09:38:38;100574.09;;;20.99;57.04
29359;BME280;16347;53.232;6.556;2023-08-06T09:41:07;100575.81;;;21.01;57.11
29359;BME280;16347;53.232;6.556;2023-08-06T09:43:43;100584.84;;;21.08;57.00
29359;BME280;16347;53.232;6.556;2023-08-06T09:46:11;100585.06;;;21.06;56.96
29359;BME280;16347;53.232;6.556;2023-08-06T09:48:40;100585.88;;;21.13;57.20
29359;BME280;16347;53.232;6.556;2023-08-06T09:51:09;100590.81;;;21.23;57.71
29359;BME280;16347;53.232;6.556;2023-08-06T09:53:39;100587.75;;;21.31;57.24
29359;BME280;16347;53.232;6.556;2023-08-06T09:56:08;100587.59;;;21.26;53.99
29359;BME280;16347;53.232;6.556;2023-08-06T09:58:38;100589.75;;;21.24;54.51
29359;BME280;16347;53.232;6.556;2023-08-06T10:01:08;100589.19;;;21.33;55.12
29359;BME280;16347;53.232;6.556;2023-08-06T10:03:36;100588.13;;;21.46;56.13
29359;BME280;16347;53.232;6.556;2023-08-06T10:06:04;100582.13;;;21.49;56.40
29359;BME280;16347;53.232;6.556;2023-08-06T10:08:35;100592.13;;;21.50;55.38
29359;BME280;16347;53.232;6.556;2023-08-06T10:11:04;100588.28;;;21.51;55.14
29359;BME280;16347;53.232;6.556;2023-08-06T10:13:33;100587.56;;;21.56;55.31
29359;BME280;16347;53.232;6.556;2023-08-06T10:16:02;100583.72;;;21.57;55.35
29359;BME280;16347;53.232;6.556;2023-08-06T10:18:35;100583.34;;;21.53;54.74
29359;BME280;16347;53.232;6.556;2023-08-06T10:21:07;100579.63;;;21.59;55.22
29359;BME280;16347;53.232;6.556;2023-08-06T10:23:37;100576.88;;;21.59;54.70
29359;BME280;16347;53.232;6.556;2023-08-06T10:26:08;100587.94;;;21.59;54.64
29359;BME280;16347;53.232;6.556;2023-08-06T10:28:36;100586.88;;;21.60;55.20
29359;BME280;16347;53.232;6.556;2023-08-06T10:31:05;100587.50;;;21.62;55.77
29359;BME280;16347;53.232;6.556;2023-08-06T10:33:42;100579.44;;;21.72;55.36
29359;BME280;16347;53.232;6.556;2023-08-06T10:36:11;100585.06;;;21.66;54.29
29359;BME280;16347;53.232;6.556;2023-08-06T10:38:47;100589.03;;;21.70;54.72
29359;BME280;16347;53.232;6.556;2023-08-06T10:41:17;100578.09;;;21.63;53.88
29359;BME280;16347;53.232;6.556;2023-08-06T10:43:47;100586.63;;;21.62;52.80
29359;BME280;16347;53.232;6.556;2023-08-06T10:46:23;100587.34;;;21.57;52.49
29359;BME280;16347;53.232;6.556;2023-08-06T10:48:52;100585.91;;;21.55;52.36
29359;BME280;16347;53.232;6.556;2023-08-06T10:51:20;100588.66;;;21.55;52.78
29359;BME280;16347;53.232;6.556;2023-08-06T10:53:50;100585.41;;;21.58;53.48
29359;BME280;16347;53.232;6.556;2023-08-06T10:56:19;100589.88;;;21.59;52.48
29359;BME280;16347;53.232;6.556;2023-08-06T10:58:51;100588.31;;;21.63;53.09
29359;BME280;16347;53.232;6.556;2023-08-06T11:01:19;100588.94;;;21.65;52.06
29359;BME280;16347;53.232;6.556;2023-08-06T11:03:50;100586.66;;;21.73;53.52
29359;BME280;16347;53.232;6.556;2023-08-06T11:06:22;100584.38;;;21.82;52.18
29359;BME280;16347;53.232;6.556;2023-08-06T11:08:52;100575.94;;;21.77;51.51
29359;BME280;16347;53.232;6.556;2023-08-06T11:11:22;100577.38;;;21.79;51.72
29359;BME280;16347;53.232;6.556;2023-08-06T11:13:51;100573.91;;;21.84;52.63
29359;BME280;16347;53.232;6.556;2023-08-06T11:16:21;100576.09;;;21.82;52.31
29359;BME280;16347;53.232;6.556;2023-08-06T11:18:50;100577.44;;;21.91;52.90
29359;BME280;16347;53.232;6.556;2023-08-06T11:21:21;100578.88;;;21.93;52.57
29359;BME280;16347;53.232;6.556;2023-08-06T11:23:51;100577.69;;;22.01;52.32
29359;BME280;16347;53.232;6.556;2023-08-06T11:26:19;100577.22;;;22.04;51.53
29359;BME280;16347;53.232;6.556;2023-08-06T11:28:47;100577.56;;;22.08;51.23
29359;BME280;16347;53.232;6.556;2023-08-06T11:31:19;100576.25;;;22.10;51.62
29359;BME280;16347;53.232;6.556;2023-08-06T11:33:47;100574.19;;;22.17;51.99
29359;BME280;16347;53.232;6.556;2023-08-06T11:36:15;100573.72;;;22.20;52.20
29359;BME280;16347;53.232;6.556;2023-08-06T11:38:44;100581.06;;;22.26;52.17
29359;BME280;16347;53.232;6.556;2023-08-06T11:41:12;100576.13;;;22.28;51.79
29359;BME280;16347;53.232;6.556;2023-08-06T11:43:40;100574.78;;;22.31;50.38
29359;BME280;16347;53.232;6.556;2023-08-06T11:46:08;100573.22;;;22.23;48.68
29359;BME280;16347;53.232;6.556;2023-08-06T11:48:50;100573.84;;;22.25;48.94
29359;BME280;16347;53.232;6.556;2023-08-06T11:51:22;100583.09;;;22.31;49.50
29359;BME280;16347;53.232;6.556;2023-08-06T11:53:53;100577.47;;;22.26;49.06
29359;BME280;16347;53.232;6.556;2023-08-06T11:56:22;100578.66;;;22.30;49.03
29359;BME280;16347;53.232;6.556;2023-08-06T11:58:50;100583.97;;;22.31;49.41
29359;BME280;16347;53.232;6.556;2023-08-06T12:01:18;100585.91;;;22.19;48.22
29359;BME280;16347;53.232;6.556;2023-08-06T12:03:46;100588.66;;;22.31;49.07
29359;BME280;16347;53.232;6.556;2023-08-06T12:06:14;100587.56;;;22.32;48.31
29359;BME280;16347;53.232;6.556;2023-08-06T12:08:42;100586.94;;;22.30;48.04
29359;BME280;16347;53.232;6.556;2023-08-06T12:11:12;100582.16;;;22.25;48.58
29359;BME280;16347;53.232;6.556;2023-08-06T12:13:40;100581.41;;;22.30;49.33
29359;BME280;16347;53.232;6.556;2023-08-06T12:16:08;100592.84;;;22.33;50.07
29359;BME280;16347;53.232;6.556;2023-08-06T12:18:36;100586.25;;;22.34;49.24
29359;BME280;16347;53.232;6.556;2023-08-06T12:21:04;100583.94;;;22.20;49.34
29359;BME280;16347;53.232;6.556;2023-08-06T12:23:32;100583.59;;;22.28;49.50
29359;BME280;16347;53.232;6.556;2023-08-06T12:26:00;100586.47;;;22.33;49.24
29359;BME280;16347;53.232;6.556;2023-08-06T12:28:30;100581.66;;;22.28;48.33
29359;BME280;16347;53.232;6.556;2023-08-06T12:30:58;100588.19;;;22.22;48.60
29359;BME280;16347;53.232;6.556;2023-08-06T12:33:26;100586.97;;;22.18;49.18
29359;BME280;16347;53.232;6.556;2023-08-06T12:35:54;100592.13;;;22.26;50.28
29359;BME280;16347;53.232;6.556;2023-08-06T12:38:24;100586.47;;;22.44;50.52
29359;BME280;16347;53.232;6.556;2023-08-06T12:40:51;100596.09;;;22.54;51.24
29359;BME280;16347;53.232;6.556;2023-08-06T12:43:19;100595.38;;;22.70;50.99
29359;BME280;16347;53.232;6.556;2023-08-06T12:45:49;100589.59;;;22.71;50.43
29359;BME280;16347;53.232;6.556;2023-08-06T12:48:18;100601.63;;;22.65;48.76
29359;BME280;16347;53.232;6.556;2023-08-06T12:50:46;100594.78;;;22.68;48.46
29359;BME280;16347;53.232;6.556;2023-08-06T12:53:16;100590.44;;;22.72;50.22
29359;BME280;16347;53.232;6.556;2023-08-06T12:55:43;100592.94;;;22.85;50.50
29359;BME280;16347;53.232;6.556;2023-08-06T12:58:12;100595.13;;;22.71;50.44
29359;BME280;16347;53.232;6.556;2023-08-06T13:00:41;100594.78;;;22.79;49.56